^^

Flughafenwetter in der weiteren Umgebung

 

EDVE - Braunschweig, Germany
Entfernung von Station: N 5 km
Aktualisierung: 18.08.2017 08:20
stark bewölkt
stark bewölkt
 Wind aus S
Wind: S 9 km/h
Temperatur: 19°C
Taupunkt: 19°C
Luftfeuchte: 100%
Luftdruck: 1014 hPa
Wolken: stark bewölkt
Sicht: 10 km
Wolken Details: leicht bewölkt 945 m
stark bewölkt 5791 m
2017/08/18 06:20 EDVE 180620Z 19005KT 9999 FEW031 BKN190 19/19 Q1014
ETHC - Celle (ger-Army), Germany
Entfernung von Station: NW 51 km
Aktualisierung: 18.08.2017 08:20
stark bewölkt
stark bewölkt
 Wind aus SSO
Wind: SSO 7 km/h
Temperatur: 18°C
Taupunkt: 15°C
Luftfeuchte: 83%
Luftdruck: 1013 hPa
Wolken: stark bewölkt
Sicht: 10 km
Wolken Details: leicht bewölkt 1219 m
stark bewölkt 2743 m
stark bewölkt 5791 m
2017/08/18 06:20 ETHC 180620Z 16004KT 9999 FEW040 BKN090 BKN190 18/15 Q1013 BLU BLU TEMPO WHT
 
EDDV - Hannover, Germany
Entfernung von Station: WNW 62 km
Aktualisierung: 18.08.2017 08:20
stark bewölkt
stark bewölkt
 Wind aus SSW
Wind: SSW 11 km/h
Temperatur: 19°C
Taupunkt: 16°C
Luftfeuchte: 83%
Luftdruck: 1013 hPa
Wolken: stark bewölkt
Sicht: 10 km
Wolken Details: leicht bewölkt 610 m
bewölkt 2591 m
stark bewölkt 7620 m
2017/08/18 06:20 EDDV 180620Z 21006KT 180V240 9999 FEW020 SCT085 BKN250 19/16 Q1013 NOSIG
ETHS - Fassberg (ger-Af, Germany
Entfernung von Station: NNW 75 km
Aktualisierung: 18.08.2017 08:20
stark bewölkt
stark bewölkt
 Wind aus SSW
Wind: SSW 9 km/h
Temperatur: 19°C
Taupunkt: 16°C
Luftfeuchte: 83%
Luftdruck: 1013 hPa
Wolken: stark bewölkt
Sicht: 10 km
Wolken Details: leicht bewölkt 610 m
bewölkt 6096 m
stark bewölkt 7315 m
2017/08/18 06:20 ETHS 180620Z 21005KT 9999 FEW020 SCT200 BKN240 19/16 Q1013 BLU+BLU+ BECMG BLU
 
EDBC - Cochstedt Arpt, Germany
Entfernung von Station: SO 76 km
Aktualisierung: 24.07.2017 17:20
nicht aktuell
Regen, stark bewölkt
Regen, stark bewölkt
 Wind aus N
Wind: N 11 km/h
Temperatur: 16°C
Taupunkt: 16°C
Luftfeuchte: 100%
Luftdruck: 1007 hPa
Zusammenfassung: Regen
Wolken: stark bewölkt
Sicht: 10 km
Wolken Details: bewölkt 914 m
stark bewölkt 1981 m
2017/07/24 15:20 EDBC 241520Z 35006KT 9999 -RA SCT030 BKN065 16/16 Q1007
ETNW - Wunstorf (ger-Af, Germany
Entfernung von Station: WNW 79 km
Aktualisierung: 18.08.2017 08:20
stark bewölkt
stark bewölkt
 Wind aus S
Wind: S 6 km/h
Temperatur: 19°C
Taupunkt: 16°C
Luftfeuchte: 83%
Luftdruck: 1013 hPa
Wolken: stark bewölkt
Sicht: 10 km
Wolken Details: leicht bewölkt 610 m
stark bewölkt 2438 m
stark bewölkt 6096 m
2017/08/18 06:20 ETNW 180620Z 19003KT 9999 FEW020 BKN080 BKN200 19/16 Q1013 BLU BLU
 
ETHB - Buckeburg(Ger-Ar, Germany
Entfernung von Station: W 101 km
Aktualisierung: 18.08.2017 08:20
Regen, stark bewölkt
Regen, stark bewölkt
 Wind aus SSW
Wind: SSW 13 km/h
Temperatur: 18°C
Taupunkt: 17°C
Luftfeuchte: 94%
Luftdruck: 1013 hPa
Zusammenfassung: Regen
Wolken: stark bewölkt
Sicht: 10 km
Wolken Details: leicht bewölkt 549 m
stark bewölkt 2347 m
stark bewölkt 3048 m
2017/08/18 06:20 ETHB 180620Z 20007KT 9999 -RA FEW018 BKN077 BKN100 18/17 Q1013 BLACKBLU BLU BECMG WHT
ETGQ - Rotenburg, Germany
Entfernung von Station: NW 125 km
Aktualisierung: 10.10.2016 06:20
nicht aktuell

 Wind aus variiert<br>
Wind: variiert
0 km/h
Temperatur: 4°C
Taupunkt: 3°C
Luftfeuchte: 93%
Luftdruck: 1025 hPa
2016/10/10 04:20 ETGQ 100420Z AUTO /////KT //// // ////// 04/03 Q1025 ///
 
EDVK - Kassel/Calden, Germany
Entfernung von Station: SW 128 km
Aktualisierung: 18.08.2017 08:20
Regen, stark bewölkt
Regen, stark bewölkt
 Wind aus variiert<br>
Wind: variiert
4 km/h
Temperatur: 17°C
Taupunkt: 17°C
Luftfeuchte: 100%
Luftdruck: 1014 hPa
Zusammenfassung: Regen
Wolken: stark bewölkt
Sicht: 10 km
Wolken Details: bewölkt 1006 m
stark bewölkt 1676 m
2017/08/18 06:20 EDVK 180620Z VRB02KT 9999 -RA SCT033 BKN055 17/17 Q1014
EDDW - Bremen, Germany
Entfernung von Station: NW 145 km
Aktualisierung: 18.08.2017 08:20
stark bewölkt
stark bewölkt
 Wind aus SSW
Wind: SSW 11 km/h
Temperatur: 18°C
Taupunkt: 16°C
Luftfeuchte: 88%
Luftdruck: 1012 hPa
Wolken: stark bewölkt
Sicht: 10 km
Wolken Details: leicht bewölkt 427 m
stark bewölkt 884 m
2017/08/18 06:20 EDDW 180620Z 20006KT 9999 FEW014 BKN029 18/16 Q1012 NOSIG
 
EDDE - Erfurt, Germany
Entfernung von Station: SSO 148 km
Aktualisierung: 18.08.2017 08:20
Klar
Klar
 Wind aus S
Wind: S 11 km/h
Temperatur: 21°C
Taupunkt: 16°C
Luftfeuchte: 73%
Luftdruck: 1015 hPa
Zusammenfassung: Klar
Sicht: mehr als 10 km
2017/08/18 06:20 EDDE 180620Z 19006KT CAVOK 21/16 Q1015 NOSIG
EDLP - Paderborn, Germany
Entfernung von Station: WSW 135 km
Aktualisierung: 18.08.2017 08:20
Regen, stark bewölkt
Regen, stark bewölkt
 Wind aus W
Wind: W 7 km/h
Temperatur: 16°C
Taupunkt: 15°C
Luftfeuchte: 94%
Luftdruck: 1014 hPa
Zusammenfassung: Regen
Wolken: stark bewölkt
Sicht: 8 km
Wolken Details: stark bewölkt 640 m
2017/08/18 06:20 EDLP 180620Z 26004KT 200V300 8000 -RA BKN021 16/15 Q1014
 
EDHI - Hamburg/Finkenwe, Germany
Entfernung von Station: NNW 148 km
Aktualisierung: 18.08.2017 08:20
leicht bewölkt
leicht bewölkt
 Wind aus SSW
Wind: SSW 13 km/h
Temperatur: 17°C
Taupunkt: 17°C
Luftfeuchte: 100%
Luftdruck: 1012 hPa
Wolken: leicht bewölkt
Sicht: 7 km
Wolken Details: leicht bewölkt 244 m
2017/08/18 06:20 EDHI 180620Z 20007KT 7000 FEW008 17/17 Q1012
EDDP - Leipzig/Schkeudi, Germany
Entfernung von Station: SO 149 km
Aktualisierung: 18.08.2017 08:20
Klar
Klar
 Wind aus S
Wind: S 6 km/h
Temperatur: 21°C
Taupunkt: 17°C
Luftfeuchte: 78%
Luftdruck: 1015 hPa
Zusammenfassung: Klar
Sicht: mehr als 10 km
2017/08/18 06:20 EDDP 180620Z 17003KT 110V220 CAVOK 21/17 Q1015 NOSIG
 
EDDP - Leipzig/Halle, Germany
Entfernung von Station: SO 149 km
Aktualisierung: 18.08.2017 08:20
Klar
Klar
 Wind aus S
Wind: S 6 km/h
Temperatur: 21°C
Taupunkt: 17°C
Luftfeuchte: 78%
Luftdruck: 1015 hPa
Zusammenfassung: Klar
Sicht: mehr als 10 km
2017/08/18 06:20 EDDP 180620Z 17003KT 110V220 CAVOK 21/17 Q1015 NOSIG
EDOP - Schwerin-Parchim, Germany
Entfernung von Station: NNO 153 km
Aktualisierung: 18.08.2017 08:20
bedeckt
bedeckt
 Wind aus S
Wind: S 11 km/h
Temperatur: 18°C
Taupunkt: 17°C
Luftfeuchte: 94%
Luftdruck: 1013 hPa
Wolken: bedeckt
Sicht: 10 km
Wolken Details: leicht bewölkt 701 m
bedeckt 1433 m
2017/08/18 06:20 EDOP 180620Z 17006KT 9999 FEW023 OVC047 18/17 Q1013
 
ETND - Diepholz (ger-Af, Germany
Entfernung von Station: WNW 153 km
Aktualisierung: 18.08.2017 08:20
stark bewölkt
stark bewölkt
 Wind aus SSW
Wind: SSW 11 km/h
Temperatur: 18°C
Taupunkt: 17°C
Luftfeuchte: 94%
Luftdruck: 1012 hPa
Wolken: stark bewölkt
Sicht: 10 km
Wolken Details: stark bewölkt 2743 m
stark bewölkt 5791 m
2017/08/18 06:20 ETND 180620Z 21006KT 9999 BKN090 BKN190 18/17 Q1012 BLU
EDDH - Hamburg, Germany
Entfernung von Station: NNW 154 km
Aktualisierung: 18.08.2017 08:20
stark bewölkt
stark bewölkt
 Wind aus SSW
Wind: SSW 13 km/h
Temperatur: 18°C
Taupunkt: 17°C
Luftfeuchte: 94%
Luftdruck: 1012 hPa
Wolken: stark bewölkt
Sicht: 7 km
Wolken Details: stark bewölkt 274 m
stark bewölkt 549 m
2017/08/18 06:20 EDDH 180620Z 20007KT 7000 BKN009 BKN018 18/17 Q1012 BECMG BKN030
 
ETHF - Fritzlar (ger-Ar, Germany
Entfernung von Station: SW 156 km
Aktualisierung: 18.08.2017 08:28
Regen, stark bewölkt
Regen, stark bewölkt
 Wind aus variiert<br>
Wind: variiert
4 km/h
Temperatur: 18°C
Taupunkt: 16°C
Luftfeuchte: 88%
Luftdruck: 1014 hPa
Zusammenfassung: Regen
Wolken: stark bewölkt
Sicht: 10 km
Wolken Details: leicht bewölkt 914 m
stark bewölkt 1128 m
2017/08/18 06:28 ETHF 180628Z VRB02KT 9999 -RA FEW030 BKN037 18/16 Q1014 RERA BLACKBLU BLU TEMPO YLO
EDHL - Luebeck, Germany
Entfernung von Station: N 178 km
Aktualisierung: 18.08.2017 08:20
stark bewölkt
stark bewölkt
 Wind aus S
Wind: S 9 km/h
Temperatur: 18°C
Taupunkt: 17°C
Luftfeuchte: 94%
Luftdruck: 1013 hPa
Wolken: stark bewölkt
Sicht: 5 km
Wolken Details: leicht bewölkt 183 m
stark bewölkt 7010 m
2017/08/18 06:20 EDHL 180620Z 19005KT 150V230 5000 FEW006 BKN230 18/17 Q1013
 
ETSH - Holzdorf, Germany
Entfernung von Station: OSO 188 km
Aktualisierung: 18.08.2017 08:20
stark bewölkt
stark bewölkt
 Wind aus S
Wind: S 6 km/h
Temperatur: 20°C
Taupunkt: 17°C
Luftfeuchte: 83%
Luftdruck: 1016 hPa
Wolken: stark bewölkt
Sicht: 10 km
Wolken Details: leicht bewölkt 3048 m
stark bewölkt 7315 m
2017/08/18 06:20 ETSH 180620Z 18003KT 9999 FEW100 BKN240 20/17 Q1016 BLU+BLU+
EDDT - Berlin-Tegel, Germany
Entfernung von Station: ONO 190 km
Aktualisierung: 18.08.2017 08:20
bewölkt
bewölkt
 Wind aus S
Wind: S 11 km/h
Temperatur: 20°C
Taupunkt: 17°C
Luftfeuchte: 83%
Luftdruck: 1015 hPa
Wolken: bewölkt
Sicht: 10 km
Wolken Details: bewölkt 945 m
2017/08/18 06:20 EDDT 180620Z 17006KT 9999 SCT031 20/17 Q1015 NOSIG
 
ETNL - Rostock-Laage, Germany
Entfernung von Station: NO 217 km
Aktualisierung: 18.08.2017 08:20
feuchter Dunst, stark bewölkt
feuchter Dunst, stark bewölkt
 Wind aus SW
Wind: SW 11 km/h
Temperatur: 18°C
Taupunkt: 17°C
Luftfeuchte: 94%
Luftdruck: 1013 hPa
Zusammenfassung: feuchter Dunst
Wolken: stark bewölkt
Sicht: 5 km
Wolken Details: bewölkt 244 m
stark bewölkt 4572 m
2017/08/18 06:20 ETNL 180620Z 23006KT 5000 BR SCT008 BKN150 18/17 Q1013 WHT WHT TEMPO GRN
EDLW - Dortmund, Germany
Entfernung von Station: WSW 217 km
Aktualisierung: 18.08.2017 08:20
Regen, teils bewölkt
Regen, teils bewölkt
 Wind aus SSW
Wind: SSW 11 km/h
Temperatur: 15°C
Taupunkt: 13°C
Luftfeuchte: 88%
Luftdruck: 1013 hPa
Zusammenfassung: Regen
Wolken: bewölkt
Sicht: 9 km
2017/08/18 06:20 EDLW 180620Z 21006KT 9000 -RA NSC 15/13 Q1013
 
EDDK - Koeln/Bonn, Germany
Entfernung von Station: WSW 282 km
Aktualisierung: 18.08.2017 08:36
Regen, bedeckt
Regen, bedeckt
 Wind aus variiert<br>
Wind: variiert
4 km/h
Temperatur: 16°C
Taupunkt: 16°C
Luftfeuchte: 100%
Luftdruck: 1013 hPa
Zusammenfassung: Regen
Wolken: bedeckt
Sicht: 6 km
Wolken Details: bewölkt 122 m
bewölkt 579 m
bedeckt 1372 m
2017/08/18 06:36 EDDK 180636Z VRB02KT 6000 RA SCT004 SCT019 OVC045 16/16 Q1013 TEMPO NSW
EDDL - Düsseldorf, Germany
Entfernung von Station: WSW 282 km
Aktualisierung: 18.08.2017 08:20
bedeckt
bedeckt
 Wind aus SSO
Wind: SSO 11 km/h
Temperatur: 17°C
Taupunkt: 16°C
Luftfeuchte: 94%
Luftdruck: 1013 hPa
Wolken: bedeckt
Sicht: 10 km
Wolken Details: leicht bewölkt 183 m
stark bewölkt 2286 m
bedeckt 3048 m
2017/08/18 06:20 EDDL 180620Z 16006KT 9999 FEW006 BKN075 OVC100 17/16 Q1013 NOSIG
 
EDDF - Frankfurt Main, Germany
Entfernung von Station: SSW 285 km
Aktualisierung: 18.08.2017 08:20
stark bewölkt
stark bewölkt
 Wind aus SW
Wind: SW 9 km/h
Temperatur: 19°C
Taupunkt: 17°C
Luftfeuchte: 88%
Luftdruck: 1015 hPa
Wolken: stark bewölkt
Sicht: 10 km
Wolken Details: leicht bewölkt 1067 m
bewölkt 1676 m
stark bewölkt 7620 m
2017/08/18 06:20 EDDF 180620Z 23005KT 200V260 9999 FEW035 SCT055 BKN250 19/17 Q1015 NOSIG
EDDS - Stuttgart, Germany
Entfernung von Station: SSW 413 km
Aktualisierung: 18.08.2017 08:20
Klar
Klar
 Wind aus variiert<br>
Wind: variiert
2 km/h
Temperatur: 19°C
Taupunkt: 17°C
Luftfeuchte: 88%
Luftdruck: 1017 hPa
Zusammenfassung: Klar
Sicht: mehr als 10 km
2017/08/18 06:20 EDDS 180620Z VRB01KT CAVOK 19/17 Q1017 NOSIG
 
EDDR - Saarbrücken, Germany
Entfernung von Station: SW 418 km
Aktualisierung: 18.08.2017 08:20
stark bewölkt
stark bewölkt
 Wind aus SW
Wind: SW 13 km/h
Temperatur: 18°C
Taupunkt: 16°C
Luftfeuchte: 88%
Luftdruck: 1016 hPa
Wolken: stark bewölkt
Sicht: 10 km
Wolken Details: leicht bewölkt 701 m
stark bewölkt 1250 m
stark bewölkt 3048 m
2017/08/18 06:20 EDDR 180620Z 22007KT 9999 FEW023 BKN041 BKN100 18/16 Q1016 NOSIG
EDDM - München, Germany
Entfernung von Station: SSO 445 km
Aktualisierung: 18.08.2017 08:20
Klar
Klar
 Wind aus S
Wind: S 6 km/h
Temperatur: 19°C
Taupunkt: 16°C
Luftfeuchte: 83%
Luftdruck: 1018 hPa
Zusammenfassung: Klar
Sicht: mehr als 10 km
2017/08/18 06:20 EDDM 180620Z 18003KT CAVOK 19/16 Q1018 NOSIG
 
LOWI - Innsbruck, Austria
Entfernung von Station: WSW 566 km
Aktualisierung: 18.08.2017 08:20
bewölkt
bewölkt
 Wind aus W
Wind: W 6 km/h
Temperatur: 18°C
Taupunkt: 17°C
Luftfeuchte: 94%
Luftdruck: 1021 hPa
Wolken: bewölkt
Sicht: 10 km
Wolken Details: leicht bewölkt 610 m
bewölkt 7620 m
2017/08/18 06:20 LOWI 180620Z 27003KT 230V300 9999 FEW020 SCT250 18/17 Q1021 NOSIG
Besucherstatistik
Besucher gesamt: 789.299
Besucher heute: 355
Besucher gestern: 1.169
Besucher Ø : 987,76
gerade online: 11
max. online: 119
Seitenaufrufe heute: 763
Seitenaufrufe diese Seite: 2.995
Seitenaufrufe gesamt: 2.477.062
counter Statistiken